Empire, Alabama
Current Conditions -  °F | °C
As of 1:35 PM on Monday 22 Dec 2014 (Local Time) from KJFX Reporting Station
Light Rain Light Rain  
Wind Chill: 54°   Ceiling: 500
Heat Index: 54°   Visibility: 4mi
Dew Point: 54°   Wind: 0mph
Humidity: 100%   Direction: NA
Pressure: 29.79"   Gusts: NA
Location:  33.81°N, 87.01°W
Report Text: KJFX 221935Z AUTO 00000KT 4SM -RA BKN005 12/12 A2979 RMK A02 P-128
Loading
Personal Weather Stations






























Interactive Weather Map New forecast layout! Learn more

10-Day Weather Forecast

Advertisements
Track Severe Weather on mobile